Hunter M — WDE8140 — position and weather

sailwx.info

Track history (hours):
 
Tides and Currents Weather Stations Pressure Air Temp Water Temp Dewpoint Dewpoint Depression Visibility Wind Speed Wind Dir Waves Ship Positions

Hunter M

Owner: G & H Towing Company, Galveston, TX. More information available from US FCC via Universal Licensing System and Coast Guard Vessel Documentation Center.

Last reported at 2017-Sep-24 18:56 UTC. Time now 2017-Sep-24 19:24 UTC.
Position N 29°44' W 095°03'.

Length 30 m; draft 6.2 m.

Type: Tug. MMSI: 367402050.

Date/timePositionNaut miles runAvg speedWind from/ knotsBaromVisibWave heightAir tempDewpointWater temp
2017-Sep-24 18:56N 29°44' W 095°03'2 0.7
2017-Sep-24 16:31N 29°45' W 095°04'0 8.0
2017-Sep-24 16:30N 29°45' W 095°04'3 5.9
2017-Sep-24 16:00N 29°43' W 095°01'1 2.6
2017-Sep-24 15:30N 29°42' W 095°01'0 0.0
2017-Sep-24 15:00N 29°42' W 095°01'0 0.0
2017-Sep-24 14:30N 29°42' W 095°01'0 0.0
2017-Sep-24 14:00N 29°42' W 095°01'0 0.0
2017-Sep-24 13:30N 29°42' W 095°01'0 0.0
2017-Sep-24 13:00N 29°42' W 095°01'2 4.0
2017-Sep-24 12:31N 29°41' W 094°59'1 1.8
2017-Sep-24 11:57N 29°41' W 095°00'1 2.7
2017-Sep-24 11:29N 29°42' W 095°01'1 1.1
2017-Sep-24 11:00N 29°42' W 095°01'0 0.0
2017-Sep-24 10:30N 29°42' W 095°01'0 0.0
2017-Sep-24 10:00N 29°42' W 095°01'0 0.0
2017-Sep-24 09:30N 29°42' W 095°01'0 0.0
2017-Sep-24 09:00N 29°42' W 095°01'0 0.0
2017-Sep-24 08:30N 29°42' W 095°01'0 0.0
2017-Sep-24 08:00N 29°42' W 095°01'0 0.0
2017-Sep-24 07:30N 29°42' W 095°01'0 0.0
2017-Sep-24 07:00N 29°42' W 095°01'0 0.0
2017-Sep-24 06:30N 29°42' W 095°01'1 1.1
2017-Sep-24 06:00N 29°42' W 095°01'1 2.3
2017-Sep-24 05:30N 29°41' W 095°01'0 0.6
2017-Sep-24 05:00N 29°41' W 095°00'2 4.6
2017-Sep-24 04:30N 29°39' W 094°58'2 3.3
2017-Sep-24 03:56N 29°41' W 094°59'0 0.0
2017-Sep-24 03:29N 29°41' W 094°59'1 1.4
2017-Sep-24 03:00N 29°41' W 094°59'4 7.6
2017-Sep-24 02:30N 29°37' W 094°59'2 4.2
2017-Sep-24 02:00N 29°37' W 095°01'1 2.1
2017-Sep-24 01:30N 29°37' W 095°00'0 0.0
2017-Sep-24 01:00N 29°37' W 095°00'0 0.0
2017-Sep-24 00:30N 29°37' W 095°00'0 0.0
2017-Sep-24 00:00N 29°37' W 095°00'0 0.5
2017-Sep-23 23:31N 29°37' W 094°60'0 0.7
2017-Sep-23 23:01N 29°37' W 094°59'0 0.6
2017-Sep-23 22:30N 29°37' W 094°59'1 1.6
2017-Sep-23 22:01N 29°37' W 095°00'0 0.0
2017-Sep-23 21:31N 29°37' W 095°00'0 0.2
2017-Sep-23 21:01N 29°37' W 094°60'3 5.6
2017-Sep-23 20:30N 29°39' W 094°58'4 8.1
2017-Sep-23 20:01N 29°42' W 095°01'5 0.1
2017-Sep-22 01:59N 29°44' W 095°07'0 0.0
2017-Sep-22 01:26N 29°44' W 095°07'0 0.0
2017-Sep-22 00:59N 29°44' W 095°07'0 0.0
2017-Sep-22 00:29N 29°44' W 095°07'0 0.0
2017-Sep-21 23:44N 29°44' W 095°07'0 0.0
2017-Sep-21 23:26N 29°44' W 095°07'0 0.0
2017-Sep-21 22:50N 29°44' W 095°07'0 0.0
2017-Sep-21 22:29N 29°44' W 095°07'0 0.0
2017-Sep-21 21:53N 29°44' W 095°07'0 0.0
2017-Sep-21 21:17N 29°44' W 095°07'0 1.5
2017-Sep-21 20:59N 29°45' W 095°06'4 7.4
2017-Sep-21 20:24N 29°44' W 095°01'3 8.5
2017-Sep-21 20:00N 29°41' W 094°59'0 0.1
2017-Sep-21 17:41N 29°41' W 094°59'1 6.4
2017-Sep-21 17:31N 29°41' W 095°00'0 0.4
2017-Sep-21 17:01N 29°41' W 095°01'1 2.8
2017-Sep-21 16:30N 29°41' W 094°59'2 4.5
2017-Sep-21 16:01N 29°42' W 095°01'0 0.1
2017-Sep-21 15:25N 29°42' W 095°01'2 5.7
2017-Sep-21 15:01N 29°41' W 094°59'4 7.3
2017-Sep-21 14:29N 29°44' W 095°02'5 2.7
2017-Sep-21 12:36N 29°44' W 095°08'0 1.0
2017-Sep-21 12:21N 29°44' W 095°07'0 0.3
2017-Sep-21 11:57N 29°44' W 095°07'1 0.2
2017-Sep-21 08:34N 29°44' W 095°07'0 2.1
2017-Sep-21 08:25N 29°45' W 095°06'0 0.0
2017-Sep-21 07:48N 29°45' W 095°06'1 3.5
2017-Sep-21 07:28N 29°46' W 095°06'3 5.8
2017-Sep-21 07:00N 29°44' W 095°03'0 0.3
2017-Sep-21 06:31N 29°44' W 095°03'1 2.7
2017-Sep-21 06:00N 29°44' W 095°02'2 3.2
2017-Sep-21 05:30N 29°42' W 095°01'0 0.0
2017-Sep-21 04:51N 29°42' W 095°01'0 0.0
2017-Sep-21 04:30N 29°42' W 095°01'0 0.0
2017-Sep-21 04:00N 29°42' W 095°01'0 0.0
2017-Sep-21 03:30N 29°42' W 095°01'0 0.0
2017-Sep-21 03:00N 29°42' W 095°01'0 0.7
2017-Sep-21 02:30N 29°43' W 095°01'1 1.5
2017-Sep-21 01:44N 29°44' W 095°01'0 0.0
2017-Sep-21 01:07N 29°44' W 095°01'1 1.3
2017-Sep-20 23:59N 29°44' W 095°03'2 4.0
2017-Sep-20 23:31N 29°43' W 095°01'1 1.5
2017-Sep-20 23:00N 29°42' W 095°01'3 6.3
2017-Sep-20 22:30N 29°40' W 094°59'3 6.8
2017-Sep-20 22:00N 29°37' W 094°60'1 2.3
2017-Sep-20 21:30N 29°37' W 095°01'1 2.0
2017-Sep-20 21:00N 29°37' W 095°00'0 0.0
2017-Sep-20 20:29N 29°37' W 094°60'0 0.0
2017-Sep-20 19:53N 29°37' W 094°60'0 0.0
2017-Sep-20 19:23N 29°37' W 094°60'0 0.0
2017-Sep-20 18:59N 29°37' W 094°60'0 0.0
2017-Sep-20 18:29N 29°37' W 094°60'0 0.0
2017-Sep-20 17:24N 29°37' W 094°60'2 6.0
2017-Sep-20 17:00N 29°38' W 094°58'3 3.7
2017-Sep-20 16:09N 29°41' W 094°59'1 7.7
2017-Sep-20 16:00N 29°42' W 094°60'1 1.5
2017-Sep-20 15:17N 29°42' W 095°01'0 0.2
2017-Sep-20 14:59N 29°42' W 095°01'2 1.6
2017-Sep-20 14:00N 29°41' W 095°00'2 3.3
2017-Sep-20 13:30N 29°40' W 094°59'3 6.3
2017-Sep-20 13:00N 29°37' W 094°59'1 1.8
2017-Sep-20 12:22N 29°37' W 095°00'0 0.0
2017-Sep-20 11:58N 29°37' W 095°00'0 0.0
2017-Sep-20 11:28N 29°37' W 095°00'0 0.0
2017-Sep-20 10:58N 29°37' W 095°00'0 0.1
2017-Sep-20 10:30N 29°37' W 095°00'0 0.2
2017-Sep-20 10:00N 29°37' W 095°01'0 0.2
2017-Sep-20 09:30N 29°37' W 095°01'3 5.0
2017-Sep-20 08:59N 29°37' W 094°58'3 5.8
2017-Sep-20 08:26N 29°34' W 094°55'2 5.7
2017-Sep-20 08:00N 29°36' W 094°57'3 5.2
2017-Sep-20 07:30N 29°37' W 094°60'2 3.7
2017-Sep-20 07:00N 29°37' W 094°58'2 4.1
2017-Sep-20 06:30N 29°37' W 095°00'0 0.2
2017-Sep-20 06:00N 29°37' W 095°00'0 0.1
2017-Sep-20 05:30N 29°37' W 095°00'1 1.8
2017-Sep-20 05:00N 29°37' W 095°01'0 0.0
2017-Sep-20 04:30N 29°37' W 095°01'0 1.0
2017-Sep-20 04:00N 29°37' W 095°01'0 0.6
2017-Sep-20 03:29N 29°37' W 095°01'0 0.0
2017-Sep-20 02:59N 29°37' W 095°01'0 0.0
2017-Sep-20 02:26N 29°37' W 095°01'0 0.0
2017-Sep-20 01:56N 29°37' W 095°01'1 1.7
2017-Sep-20 01:30N 29°37' W 095°01'0 0.1
2017-Sep-20 01:00N 29°37' W 095°01'0 0.4
2017-Sep-20 00:27N 29°37' W 095°02'0 0.2
2017-Sep-20 00:00N 29°37' W 095°02'0 0.9
2017-Sep-19 23:30N 29°37' W 095°01'1 1.6
2017-Sep-19 22:58N 29°37' W 094°60'2 4.0
2017-Sep-19 22:31N 29°37' W 094°58'4 5.4
2017-Sep-19 21:41N 29°41' W 094°60'0 2.1
2017-Sep-19 21:31N 29°41' W 095°00'0 0.2
2017-Sep-19 21:00N 29°41' W 095°01'1 2.3
2017-Sep-19 20:30N 29°41' W 094°59'1 1.8
2017-Sep-19 20:00N 29°42' W 094°60'1 2.8
2017-Sep-19 19:30N 29°42' W 095°01'0 0.3
2017-Sep-19 18:57N 29°42' W 095°01'0 0.0
2017-Sep-19 18:30N 29°42' W 095°01'0 0.0
2017-Sep-19 17:57N 29°42' W 095°01'0 0.0
2017-Sep-19 17:30N 29°42' W 095°01'0 0.0
2017-Sep-19 16:57N 29°42' W 095°01'0 0.0
2017-Sep-19 16:27N 29°42' W 095°01'0 0.0
2017-Sep-19 16:00N 29°42' W 095°01'0 0.0
2017-Sep-19 15:30N 29°42' W 095°01'0 0.0
2017-Sep-19 15:00N 29°42' W 095°01'0 0.0
2017-Sep-19 14:30N 29°42' W 095°01'0 0.0
2017-Sep-19 14:00N 29°42' W 095°01'3 6.1
2017-Sep-19 13:26N 29°45' W 095°04'2 3.9
2017-Sep-19 12:59N 29°45' W 095°06'1 0.1
2017-Sep-19 06:27N 29°45' W 095°07'1 0.8
2017-Sep-19 05:27N 29°44' W 095°07'2 1.3
2017-Sep-19 03:39N 29°46' W 095°05'1 0.2
2017-Sep-18 21:42N 29°45' W 095°06'2 5.6
2017-Sep-18 21:21N 29°46' W 095°04'3 6.7
2017-Sep-18 20:57N 29°44' W 095°02'4 8.0
2017-Sep-18 20:30N 29°41' W 094°59'4 8.5
2017-Sep-18 20:00N 29°37' W 094°59'2 3.8
2017-Sep-18 19:22N 29°37' W 095°02'0 0.0
2017-Sep-18 18:55N 29°37' W 095°02'0 0.0
2017-Sep-18 18:22N 29°37' W 095°02'0 0.0
2017-Sep-18 17:58N 29°37' W 095°02'0 0.0
2017-Sep-18 17:28N 29°37' W 095°02'0 0.0
2017-Sep-18 16:58N 29°37' W 095°02'0 0.0
2017-Sep-18 16:28N 29°37' W 095°02'0 0.0
2017-Sep-18 15:58N 29°37' W 095°02'1 2.1
2017-Sep-18 15:30N 29°37' W 095°00'1 1.0
2017-Sep-18 15:00N 29°37' W 095°01'1 1.9
2017-Sep-18 14:30N 29°37' W 094°60'1 0.9
2017-Sep-18 13:58N 29°37' W 095°01'0 0.0
2017-Sep-18 13:25N 29°37' W 095°01'0 0.0
2017-Sep-18 12:58N 29°37' W 095°01'0 0.0
2017-Sep-18 12:28N 29°37' W 095°01'0 0.6
2017-Sep-18 11:58N 29°37' W 095°00'1 0.9
2017-Sep-18 11:24N 29°37' W 095°01'0 0.8
2017-Sep-18 10:58N 29°37' W 095°01'1 1.2
2017-Sep-18 10:28N 29°37' W 095°01'0 0.0
2017-Sep-18 09:58N 29°37' W 095°01'0 0.0
2017-Sep-18 09:28N 29°37' W 095°01'0 0.0
2017-Sep-18 08:58N 29°37' W 095°01'0 0.0
2017-Sep-18 08:28N 29°37' W 095°01'0 0.0
2017-Sep-18 07:58N 29°37' W 095°01'1 1.3
2017-Sep-18 07:30N 29°37' W 095°01'1 1.8
2017-Sep-18 06:58N 29°37' W 095°00'0 0.0
2017-Sep-18 06:28N 29°37' W 095°00'0 0.0
2017-Sep-18 05:58N 29°37' W 095°00'0 0.0
2017-Sep-18 05:25N 29°37' W 095°00'0 0.0
2017-Sep-18 04:55N 29°37' W 095°00'0 0.0
2017-Sep-18 04:25N 29°37' W 095°00'0 0.0
2017-Sep-18 03:58N 29°37' W 095°00'0 0.0
2017-Sep-18 03:28N 29°37' W 095°00'0 0.0
2017-Sep-18 02:58N 29°37' W 095°00'0 0.0
2017-Sep-18 02:28N 29°37' W 095°00'0 0.0
2017-Sep-18 01:58N 29°37' W 095°00'0 0.0
2017-Sep-18 01:25N 29°37' W 095°00'0 0.0
2017-Sep-18 00:52N 29°37' W 095°00'0 0.0
2017-Sep-18 00:25N 29°37' W 095°00'0 0.0
2017-Sep-17 23:58N 29°37' W 095°00'0 0.0
2017-Sep-17 23:29N 29°37' W 095°00'0 0.1
2017-Sep-17 23:01N 29°37' W 095°00'1 2.0
2017-Sep-17 22:30N 29°37' W 095°01'0 0.5
2017-Sep-17 22:00N 29°37' W 095°01'0 0.8
2017-Sep-17 21:30N 29°37' W 095°01'1 1.4
2017-Sep-17 21:00N 29°37' W 095°01'1 1.5
2017-Sep-17 20:29N 29°37' W 095°02'0 0.0
2017-Sep-17 19:59N 29°37' W 095°02'0 0.0
2017-Sep-17 19:29N 29°37' W 095°02'0 0.0
2017-Sep-17 18:56N 29°37' W 095°02'0 0.0
2017-Sep-17 18:29N 29°37' W 095°02'0 0.0
2017-Sep-17 17:59N 29°37' W 095°02'0 0.0
2017-Sep-17 17:29N 29°37' W 095°02'0 0.0
2017-Sep-17 16:59N 29°37' W 095°02'0 0.0
2017-Sep-17 16:29N 29°37' W 095°02'0 0.0
2017-Sep-17 16:00N 29°37' W 095°02'0 0.1
2017-Sep-17 15:30N 29°37' W 095°02'0 0.0
2017-Sep-17 15:00N 29°37' W 095°02'1 2.6
2017-Sep-17 14:29N 29°37' W 095°00'0 0.0
2017-Sep-17 13:59N 29°37' W 095°00'0 0.0
2017-Sep-17 13:29N 29°37' W 095°00'0 0.0
2017-Sep-17 12:59N 29°37' W 095°00'0 0.0
2017-Sep-17 12:29N 29°37' W 095°00'0 0.0
2017-Sep-17 12:00N 29°37' W 095°00'1 2.6
2017-Sep-17 11:30N 29°37' W 094°59'1 2.7
2017-Sep-17 11:00N 29°37' W 095°00'0 0.7
2017-Sep-17 10:30N 29°37' W 095°01'0 0.0
2017-Sep-17 10:00N 29°37' W 095°01'0 0.0
2017-Sep-17 09:30N 29°37' W 095°01'0 0.0
2017-Sep-17 09:00N 29°37' W 095°01'0 0.0
2017-Sep-17 08:30N 29°37' W 095°01'0 0.0
2017-Sep-17 08:00N 29°37' W 095°01'0 0.0
2017-Sep-17 07:30N 29°37' W 095°01'3 5.2
2017-Sep-17 07:00N 29°37' W 094°58'3 5.2
2017-Sep-17 06:30N 29°37' W 095°01'0 0.1
2017-Sep-17 06:00N 29°37' W 095°01'1 1.7
2017-Sep-17 05:30N 29°37' W 095°02'0 0.0
2017-Sep-17 04:59N 29°37' W 095°02'0 0.0
2017-Sep-17 04:29N 29°37' W 095°02'0 0.0
2017-Sep-17 03:59N 29°37' W 095°02'0 0.0
2017-Sep-17 03:29N 29°37' W 095°02'0 0.0
2017-Sep-17 02:59N 29°37' W 095°02'0 0.0
2017-Sep-17 02:29N 29°37' W 095°02'0 0.0
2017-Sep-17 01:59N 29°37' W 095°02'0 0.0
2017-Sep-17 01:29N 29°37' W 095°02'0 0.0
2017-Sep-17 00:59N 29°37' W 095°02'0 0.0
2017-Sep-17 00:29N 29°37' W 095°02'0 0.0
2017-Sep-16 23:59N 29°37' W 095°02'0 0.0
2017-Sep-16 23:29N 29°37' W 095°02'0 0.0
2017-Sep-16 23:00N 29°37' W 095°02'1 2.3
2017-Sep-16 22:30N 29°37' W 095°00'1 1.8
2017-Sep-16 22:00N 29°37' W 095°01'0 0.5
2017-Sep-16 21:29N 29°37' W 095°02'0 0.0
2017-Sep-16 20:59N 29°37' W 095°02'0 0.0
2017-Sep-16 20:29N 29°37' W 095°02'0 0.0
2017-Sep-16 19:59N 29°37' W 095°02'0 0.0
2017-Sep-16 19:29N 29°37' W 095°02'0 0.0
2017-Sep-16 18:59N 29°37' W 095°02'0 0.0
2017-Sep-16 18:29N 29°37' W 095°02'0 0.0
2017-Sep-16 17:59N 29°37' W 095°02'0 0.1
2017-Sep-16 17:30N 29°37' W 095°02'0 0.1
2017-Sep-16 17:00N 29°37' W 095°02'1 2.0
2017-Sep-16 16:30N 29°37' W 095°00'0 0.0
2017-Sep-16 15:56N 29°37' W 095°00'1 1.5
2017-Sep-16 15:30N 29°37' W 095°01'0 0.0
2017-Sep-16 15:00N 29°37' W 095°01'0 0.1
2017-Sep-16 14:30N 29°37' W 095°01'1 1.6
2017-Sep-16 14:00N 29°37' W 095°00'0 0.0
2017-Sep-16 13:30N 29°37' W 095°00'0 0.0
2017-Sep-16 13:00N 29°37' W 095°00'0 0.0
2017-Sep-16 12:30N 29°37' W 095°00'0 0.0
2017-Sep-16 11:57N 29°37' W 095°00'0 0.0
2017-Sep-16 11:30N 29°37' W 095°00'0 0.1
2017-Sep-16 11:00N 29°37' W 095°00'1 1.9
2017-Sep-16 10:30N 29°37' W 095°01'1 1.7
2017-Sep-16 10:00N 29°37' W 095°00'3 5.4
2017-Sep-16 09:30N 29°36' W 094°57'0 0.5
2017-Sep-16 09:00N 29°37' W 094°57'5 9.5
2017-Sep-16 08:30N 29°41' W 094°59'0 0.0
2017-Sep-16 08:00N 29°41' W 094°59'1 1.0
2017-Sep-16 07:31N 29°41' W 094°59'1 1.3
2017-Sep-16 07:00N 29°41' W 094°60'0 0.2
2017-Sep-16 06:30N 29°41' W 094°59'0 0.0
2017-Sep-16 05:49N 29°41' W 094°59'0 0.0
2017-Sep-16 05:22N 29°41' W 094°59'0 0.0
2017-Sep-16 04:49N 29°41' W 094°59'0 0.0
2017-Sep-16 04:28N 29°41' W 094°59'0 0.0
2017-Sep-16 00:19N 29°41' W 094°59'0 0.0
2017-Sep-15 23:49N 29°41' W 094°59'0 0.0
2017-Sep-15 23:28N 29°41' W 094°59'1 2.1
2017-Sep-15 23:00N 29°42' W 094°60'5 9.1
2017-Sep-15 22:29N 29°45' W 095°04'6 1.4
2017-Sep-15 18:21N 29°45' W 095°11'4 6.4
2017-Sep-15 17:40N 29°45' W 095°06'1 7.6
2017-Sep-15 17:30N 29°45' W 095°04'4 8.2
2017-Sep-15 17:00N 29°42' W 095°01'0 0.1
2017-Sep-15 14:48N 29°42' W 095°01'0 0.0
2017-Sep-15 14:15N 29°42' W 095°01'0 0.0
2017-Sep-15 13:45N 29°42' W 095°01'1 0.6
2017-Sep-15 12:28N 29°43' W 095°01'1 1.6
2017-Sep-15 11:57N 29°42' W 095°01'0 0.1
2017-Sep-15 11:31N 29°42' W 095°01'2 3.5
2017-Sep-15 11:01N 29°41' W 094°60'0 0.4
2017-Sep-15 10:30N 29°41' W 094°59'1 1.8
2017-Sep-15 10:00N 29°40' W 094°59'1 1.3
2017-Sep-15 09:30N 29°41' W 094°59'0 0.0
2017-Sep-15 09:00N 29°41' W 094°59'0 0.0
2017-Sep-15 08:30N 29°41' W 094°59'0 0.0
2017-Sep-15 08:00N 29°41' W 094°59'1 1.2
2017-Sep-15 07:30N 29°41' W 094°60'0 0.9
2017-Sep-15 06:58N 29°41' W 095°00'1 1.3
2017-Sep-15 06:30N 29°41' W 094°60'0 0.0
2017-Sep-15 06:00N 29°41' W 094°60'0 0.0
2017-Sep-15 05:30N 29°41' W 094°60'0 0.2
2017-Sep-15 05:00N 29°41' W 094°60'0 0.8
2017-Sep-15 04:30N 29°41' W 094°59'0 0.0
2017-Sep-15 04:00N 29°41' W 094°59'0 0.0
2017-Sep-15 03:30N 29°41' W 094°59'0 0.0
2017-Sep-15 03:00N 29°41' W 094°59'0 0.0
2017-Sep-15 02:30N 29°41' W 094°59'0 0.0
2017-Sep-15 02:00N 29°41' W 094°59'2 3.9
2017-Sep-15 01:30N 29°42' W 095°01'2 2.0
2017-Sep-15 00:43N 29°44' W 095°01'0 0.0
2017-Sep-15 00:28N 29°44' W 095°01'0 0.3
2017-Sep-14 23:55N 29°44' W 095°01'2 3.7
2017-Sep-14 23:30N 29°42' W 095°01'0 0.5
2017-Sep-14 22:47N 29°42' W 095°01'0 0.0
2017-Sep-14 22:29N 29°42' W 095°01'0 0.0
2017-Sep-14 21:56N 29°42' W 095°01'0 0.0
2017-Sep-14 20:50N 29°42' W 095°01'1 1.1
2017-Sep-14 19:31N 29°44' W 095°01'  
Track history (hours):
 
Tides and Currents Weather Stations Pressure Air Temp Water Temp Dewpoint Dewpoint Depression Visibility Wind Speed Wind Dir Waves Ship Positions

Hunter M

Owner: G & H Towing Company, Galveston, TX. More information available from US FCC via Universal Licensing System and Coast Guard Vessel Documentation Center.

Last reported at 2017-Sep-24 18:56 UTC. Time now 2017-Sep-24 19:24 UTC.
Position N 29°44' W 095°03'.

Length 30 m; draft 6.2 m.

Type: Tug. MMSI: 367402050.

Date/timePositionNaut miles runAvg speedWind from/ knotsBaromVisibWave heightAir tempDewpointWater temp
2017-Sep-24 18:56N 29°44' W 095°03'2 0.7
2017-Sep-24 16:31N 29°45' W 095°04'0 8.0
2017-Sep-24 16:30N 29°45' W 095°04'3 5.9
2017-Sep-24 16:00N 29°43' W 095°01'1 2.6
2017-Sep-24 15:30N 29°42' W 095°01'0 0.0
2017-Sep-24 15:00N 29°42' W 095°01'0 0.0
2017-Sep-24 14:30N 29°42' W 095°01'0 0.0
2017-Sep-24 14:00N 29°42' W 095°01'0 0.0
2017-Sep-24 13:30N 29°42' W 095°01'0 0.0
2017-Sep-24 13:00N 29°42' W 095°01'2 4.0
2017-Sep-24 12:31N 29°41' W 094°59'1 1.8
2017-Sep-24 11:57N 29°41' W 095°00'1 2.7
2017-Sep-24 11:29N 29°42' W 095°01'1 1.1
2017-Sep-24 11:00N 29°42' W 095°01'0 0.0
2017-Sep-24 10:30N 29°42' W 095°01'0 0.0
2017-Sep-24 10:00N 29°42' W 095°01'0 0.0
2017-Sep-24 09:30N 29°42' W 095°01'0 0.0
2017-Sep-24 09:00N 29°42' W 095°01'0 0.0
2017-Sep-24 08:30N 29°42' W 095°01'0 0.0
2017-Sep-24 08:00N 29°42' W 095°01'0 0.0
2017-Sep-24 07:30N 29°42' W 095°01'0 0.0
2017-Sep-24 07:00N 29°42' W 095°01'0 0.0
2017-Sep-24 06:30N 29°42' W 095°01'1 1.1
2017-Sep-24 06:00N 29°42' W 095°01'1 2.3
2017-Sep-24 05:30N 29°41' W 095°01'0 0.6
2017-Sep-24 05:00N 29°41' W 095°00'2 4.6
2017-Sep-24 04:30N 29°39' W 094°58'2 3.3
2017-Sep-24 03:56N 29°41' W 094°59'0 0.0
2017-Sep-24 03:29N 29°41' W 094°59'1 1.4
2017-Sep-24 03:00N 29°41' W 094°59'4 7.6
2017-Sep-24 02:30N 29°37' W 094°59'2 4.2
2017-Sep-24 02:00N 29°37' W 095°01'1 2.1
2017-Sep-24 01:30N 29°37' W 095°00'0 0.0
2017-Sep-24 01:00N 29°37' W 095°00'0 0.0
2017-Sep-24 00:30N 29°37' W 095°00'0 0.0
2017-Sep-24 00:00N 29°37' W 095°00'0 0.5
2017-Sep-23 23:31N 29°37' W 094°60'0 0.7
2017-Sep-23 23:01N 29°37' W 094°59'0 0.6
2017-Sep-23 22:30N 29°37' W 094°59'1 1.6
2017-Sep-23 22:01N 29°37' W 095°00'0 0.0
2017-Sep-23 21:31N 29°37' W 095°00'0 0.2
2017-Sep-23 21:01N 29°37' W 094°60'3 5.6
2017-Sep-23 20:30N 29°39' W 094°58'4 8.1
2017-Sep-23 20:01N 29°42' W 095°01'5 0.1
2017-Sep-22 01:59N 29°44' W 095°07'0 0.0
2017-Sep-22 01:26N 29°44' W 095°07'0 0.0
2017-Sep-22 00:59N 29°44' W 095°07'0 0.0
2017-Sep-22 00:29N 29°44' W 095°07'0 0.0
2017-Sep-21 23:44N 29°44' W 095°07'0 0.0
2017-Sep-21 23:26N 29°44' W 095°07'0 0.0
2017-Sep-21 22:50N 29°44' W 095°07'0 0.0
2017-Sep-21 22:29N 29°44' W 095°07'0 0.0
2017-Sep-21 21:53N 29°44' W 095°07'0 0.0
2017-Sep-21 21:17N 29°44' W 095°07'0 1.5
2017-Sep-21 20:59N 29°45' W 095°06'4 7.4
2017-Sep-21 20:24N 29°44' W 095°01'3 8.5
2017-Sep-21 20:00N 29°41' W 094°59'0 0.1
2017-Sep-21 17:41N 29°41' W 094°59'1 6.4
2017-Sep-21 17:31N 29°41' W 095°00'0 0.4
2017-Sep-21 17:01N 29°41' W 095°01'1 2.8
2017-Sep-21 16:30N 29°41' W 094°59'2 4.5
2017-Sep-21 16:01N 29°42' W 095°01'0 0.1
2017-Sep-21 15:25N 29°42' W 095°01'2 5.7
2017-Sep-21 15:01N 29°41' W 094°59'4 7.3
2017-Sep-21 14:29N 29°44' W 095°02'5 2.7
2017-Sep-21 12:36N 29°44' W 095°08'0 1.0
2017-Sep-21 12:21N 29°44' W 095°07'0 0.3
2017-Sep-21 11:57N 29°44' W 095°07'1 0.2
2017-Sep-21 08:34N 29°44' W 095°07'0 2.1
2017-Sep-21 08:25N 29°45' W 095°06'0 0.0
2017-Sep-21 07:48N 29°45' W 095°06'1 3.5
2017-Sep-21 07:28N 29°46' W 095°06'3 5.8
2017-Sep-21 07:00N 29°44' W 095°03'0 0.3
2017-Sep-21 06:31N 29°44' W 095°03'1 2.7
2017-Sep-21 06:00N 29°44' W 095°02'2 3.2
2017-Sep-21 05:30N 29°42' W 095°01'0 0.0
2017-Sep-21 04:51N 29°42' W 095°01'0 0.0
2017-Sep-21 04:30N 29°42' W 095°01'0 0.0
2017-Sep-21 04:00N 29°42' W 095°01'0 0.0
2017-Sep-21 03:30N 29°42' W 095°01'0 0.0
2017-Sep-21 03:00N 29°42' W 095°01'0 0.7
2017-Sep-21 02:30N 29°43' W 095°01'1 1.5
2017-Sep-21 01:44N 29°44' W 095°01'0 0.0
2017-Sep-21 01:07N 29°44' W 095°01'1 1.3
2017-Sep-20 23:59N 29°44' W 095°03'2 4.0
2017-Sep-20 23:31N 29°43' W 095°01'1 1.5
2017-Sep-20 23:00N 29°42' W 095°01'3 6.3
2017-Sep-20 22:30N 29°40' W 094°59'3 6.8
2017-Sep-20 22:00N 29°37' W 094°60'1 2.3
2017-Sep-20 21:30N 29°37' W 095°01'1 2.0
2017-Sep-20 21:00N 29°37' W 095°00'0 0.0
2017-Sep-20 20:29N 29°37' W 094°60'0 0.0
2017-Sep-20 19:53N 29°37' W 094°60'0 0.0
2017-Sep-20 19:23N 29°37' W 094°60'0 0.0
2017-Sep-20 18:59N 29°37' W 094°60'0 0.0
2017-Sep-20 18:29N 29°37' W 094°60'0 0.0
2017-Sep-20 17:24N 29°37' W 094°60'2 6.0
2017-Sep-20 17:00N 29°38' W 094°58'3 3.7
2017-Sep-20 16:09N 29°41' W 094°59'1 7.7
2017-Sep-20 16:00N 29°42' W 094°60'1 1.5
2017-Sep-20 15:17N 29°42' W 095°01'0 0.2
2017-Sep-20 14:59N 29°42' W 095°01'2 1.6
2017-Sep-20 14:00N 29°41' W 095°00'2 3.3
2017-Sep-20 13:30N 29°40' W 094°59'3 6.3
2017-Sep-20 13:00N 29°37' W 094°59'1 1.8
2017-Sep-20 12:22N 29°37' W 095°00'0 0.0
2017-Sep-20 11:58N 29°37' W 095°00'0 0.0
2017-Sep-20 11:28N 29°37' W 095°00'0 0.0
2017-Sep-20 10:58N 29°37' W 095°00'0 0.1
2017-Sep-20 10:30N 29°37' W 095°00'0 0.2
2017-Sep-20 10:00N 29°37' W 095°01'0 0.2
2017-Sep-20 09:30N 29°37' W 095°01'3 5.0
2017-Sep-20 08:59N 29°37' W 094°58'3 5.8
2017-Sep-20 08:26N 29°34' W 094°55'2 5.7
2017-Sep-20 08:00N 29°36' W 094°57'3 5.2
2017-Sep-20 07:30N 29°37' W 094°60'2 3.7
2017-Sep-20 07:00N 29°37' W 094°58'2 4.1
2017-Sep-20 06:30N 29°37' W 095°00'0 0.2
2017-Sep-20 06:00N 29°37' W 095°00'0 0.1
2017-Sep-20 05:30N 29°37' W 095°00'1 1.8
2017-Sep-20 05:00N 29°37' W 095°01'0 0.0
2017-Sep-20 04:30N 29°37' W 095°01'0 1.0
2017-Sep-20 04:00N 29°37' W 095°01'0 0.6
2017-Sep-20 03:29N 29°37' W 095°01'0 0.0
2017-Sep-20 02:59N 29°37' W 095°01'0 0.0
2017-Sep-20 02:26N 29°37' W 095°01'0 0.0
2017-Sep-20 01:56N 29°37' W 095°01'1 1.7
2017-Sep-20 01:30N 29°37' W 095°01'0 0.1
2017-Sep-20 01:00N 29°37' W 095°01'0 0.4
2017-Sep-20 00:27N 29°37' W 095°02'0 0.2
2017-Sep-20 00:00N 29°37' W 095°02'0 0.9
2017-Sep-19 23:30N 29°37' W 095°01'1 1.6
2017-Sep-19 22:58N 29°37' W 094°60'2 4.0
2017-Sep-19 22:31N 29°37' W 094°58'4 5.4
2017-Sep-19 21:41N 29°41' W 094°60'0 2.1
2017-Sep-19 21:31N 29°41' W 095°00'0 0.2
2017-Sep-19 21:00N 29°41' W 095°01'1 2.3
2017-Sep-19 20:30N 29°41' W 094°59'1 1.8
2017-Sep-19 20:00N 29°42' W 094°60'1 2.8
2017-Sep-19 19:30N 29°42' W 095°01'0 0.3
2017-Sep-19 18:57N 29°42' W 095°01'0 0.0
2017-Sep-19 18:30N 29°42' W 095°01'0 0.0
2017-Sep-19 17:57N 29°42' W 095°01'0 0.0
2017-Sep-19 17:30N 29°42' W 095°01'0 0.0
2017-Sep-19 16:57N 29°42' W 095°01'0 0.0
2017-Sep-19 16:27N 29°42' W 095°01'0 0.0
2017-Sep-19 16:00N 29°42' W 095°01'0 0.0
2017-Sep-19 15:30N 29°42' W 095°01'0 0.0
2017-Sep-19 15:00N 29°42' W 095°01'0 0.0
2017-Sep-19 14:30N 29°42' W 095°01'0 0.0
2017-Sep-19 14:00N 29°42' W 095°01'3 6.1
2017-Sep-19 13:26N 29°45' W 095°04'2 3.9
2017-Sep-19 12:59N 29°45' W 095°06'1 0.1
2017-Sep-19 06:27N 29°45' W 095°07'1 0.8
2017-Sep-19 05:27N 29°44' W 095°07'2 1.3
2017-Sep-19 03:39N 29°46' W 095°05'1 0.2
2017-Sep-18 21:42N 29°45' W 095°06'2 5.6
2017-Sep-18 21:21N 29°46' W 095°04'3 6.7
2017-Sep-18 20:57N 29°44' W 095°02'4 8.0
2017-Sep-18 20:30N 29°41' W 094°59'4 8.5
2017-Sep-18 20:00N 29°37' W 094°59'2 3.8
2017-Sep-18 19:22N 29°37' W 095°02'0 0.0
2017-Sep-18 18:55N 29°37' W 095°02'0 0.0
2017-Sep-18 18:22N 29°37' W 095°02'0 0.0
2017-Sep-18 17:58N 29°37' W 095°02'0 0.0
2017-Sep-18 17:28N 29°37' W 095°02'0 0.0
2017-Sep-18 16:58N 29°37' W 095°02'0 0.0
2017-Sep-18 16:28N 29°37' W 095°02'0 0.0
2017-Sep-18 15:58N 29°37' W 095°02'1 2.1
2017-Sep-18 15:30N 29°37' W 095°00'1 1.0
2017-Sep-18 15:00N 29°37' W 095°01'1 1.9
2017-Sep-18 14:30N 29°37' W 094°60'1 0.9
2017-Sep-18 13:58N 29°37' W 095°01'0 0.0
2017-Sep-18 13:25N 29°37' W 095°01'0 0.0
2017-Sep-18 12:58N 29°37' W 095°01'0 0.0
2017-Sep-18 12:28N 29°37' W 095°01'0 0.6
2017-Sep-18 11:58N 29°37' W 095°00'1 0.9
2017-Sep-18 11:24N 29°37' W 095°01'0 0.8
2017-Sep-18 10:58N 29°37' W 095°01'1 1.2
2017-Sep-18 10:28N 29°37' W 095°01'0 0.0
2017-Sep-18 09:58N 29°37' W 095°01'0 0.0
2017-Sep-18 09:28N 29°37' W 095°01'0 0.0
2017-Sep-18 08:58N 29°37' W 095°01'0 0.0
2017-Sep-18 08:28N 29°37' W 095°01'0 0.0
2017-Sep-18 07:58N 29°37' W 095°01'1 1.3
2017-Sep-18 07:30N 29°37' W 095°01'1 1.8
2017-Sep-18 06:58N 29°37' W 095°00'0 0.0
2017-Sep-18 06:28N 29°37' W 095°00'0 0.0
2017-Sep-18 05:58N 29°37' W 095°00'0 0.0
2017-Sep-18 05:25N 29°37' W 095°00'0 0.0
2017-Sep-18 04:55N 29°37' W 095°00'0 0.0
2017-Sep-18 04:25N 29°37' W 095°00'0 0.0
2017-Sep-18 03:58N 29°37' W 095°00'0 0.0
2017-Sep-18 03:28N 29°37' W 095°00'0 0.0
2017-Sep-18 02:58N 29°37' W 095°00'0 0.0
2017-Sep-18 02:28N 29°37' W 095°00'0 0.0
2017-Sep-18 01:58N 29°37' W 095°00'0 0.0
2017-Sep-18 01:25N 29°37' W 095°00'0 0.0
2017-Sep-18 00:52N 29°37' W 095°00'0 0.0
2017-Sep-18 00:25N 29°37' W 095°00'0 0.0
2017-Sep-17 23:58N 29°37' W 095°00'0 0.0
2017-Sep-17 23:29N 29°37' W 095°00'0 0.1
2017-Sep-17 23:01N 29°37' W 095°00'1 2.0
2017-Sep-17 22:30N 29°37' W 095°01'0 0.5
2017-Sep-17 22:00N 29°37' W 095°01'0 0.8
2017-Sep-17 21:30N 29°37' W 095°01'1 1.4
2017-Sep-17 21:00N 29°37' W 095°01'1 1.5
2017-Sep-17 20:29N 29°37' W 095°02'0 0.0
2017-Sep-17 19:59N 29°37' W 095°02'0 0.0
2017-Sep-17 19:29N 29°37' W 095°02'0 0.0
2017-Sep-17 18:56N 29°37' W 095°02'0 0.0
2017-Sep-17 18:29N 29°37' W 095°02'0 0.0
2017-Sep-17 17:59N 29°37' W 095°02'0 0.0
2017-Sep-17 17:29N 29°37' W 095°02'0 0.0
2017-Sep-17 16:59N 29°37' W 095°02'0 0.0
2017-Sep-17 16:29N 29°37' W 095°02'0 0.0
2017-Sep-17 16:00N 29°37' W 095°02'0 0.1
2017-Sep-17 15:30N 29°37' W 095°02'0 0.0
2017-Sep-17 15:00N 29°37' W 095°02'1 2.6
2017-Sep-17 14:29N 29°37' W 095°00'0 0.0
2017-Sep-17 13:59N 29°37' W 095°00'0 0.0
2017-Sep-17 13:29N 29°37' W 095°00'0 0.0
2017-Sep-17 12:59N 29°37' W 095°00'0 0.0
2017-Sep-17 12:29N 29°37' W 095°00'0 0.0
2017-Sep-17 12:00N 29°37' W 095°00'1 2.6
2017-Sep-17 11:30N 29°37' W 094°59'1 2.7
2017-Sep-17 11:00N 29°37' W 095°00'0 0.7
2017-Sep-17 10:30N 29°37' W 095°01'0 0.0
2017-Sep-17 10:00N 29°37' W 095°01'0 0.0
2017-Sep-17 09:30N 29°37' W 095°01'0 0.0
2017-Sep-17 09:00N 29°37' W 095°01'0 0.0
2017-Sep-17 08:30N 29°37' W 095°01'0 0.0
2017-Sep-17 08:00N 29°37' W 095°01'0 0.0
2017-Sep-17 07:30N 29°37' W 095°01'3 5.2
2017-Sep-17 07:00N 29°37' W 094°58'3 5.2
2017-Sep-17 06:30N 29°37' W 095°01'0 0.1
2017-Sep-17 06:00N 29°37' W 095°01'1 1.7
2017-Sep-17 05:30N 29°37' W 095°02'0 0.0
2017-Sep-17 04:59N 29°37' W 095°02'0 0.0
2017-Sep-17 04:29N 29°37' W 095°02'0 0.0
2017-Sep-17 03:59N 29°37' W 095°02'0 0.0
2017-Sep-17 03:29N 29°37' W 095°02'0 0.0
2017-Sep-17 02:59N 29°37' W 095°02'0 0.0
2017-Sep-17 02:29N 29°37' W 095°02'0 0.0
2017-Sep-17 01:59N 29°37' W 095°02'0 0.0
2017-Sep-17 01:29N 29°37' W 095°02'0 0.0
2017-Sep-17 00:59N 29°37' W 095°02'0 0.0
2017-Sep-17 00:29N 29°37' W 095°02'0 0.0
2017-Sep-16 23:59N 29°37' W 095°02'0 0.0
2017-Sep-16 23:29N 29°37' W 095°02'0 0.0
2017-Sep-16 23:00N 29°37' W 095°02'1 2.3
2017-Sep-16 22:30N 29°37' W 095°00'1 1.8
2017-Sep-16 22:00N 29°37' W 095°01'0 0.5
2017-Sep-16 21:29N 29°37' W 095°02'0 0.0
2017-Sep-16 20:59N 29°37' W 095°02'0 0.0
2017-Sep-16 20:29N 29°37' W 095°02'0 0.0
2017-Sep-16 19:59N 29°37' W 095°02'0 0.0
2017-Sep-16 19:29N 29°37' W 095°02'0 0.0
2017-Sep-16 18:59N 29°37' W 095°02'0 0.0
2017-Sep-16 18:29N 29°37' W 095°02'0 0.0
2017-Sep-16 17:59N 29°37' W 095°02'0 0.1
2017-Sep-16 17:30N 29°37' W 095°02'0 0.1
2017-Sep-16 17:00N 29°37' W 095°02'1 2.0
2017-Sep-16 16:30N 29°37' W 095°00'0 0.0
2017-Sep-16 15:56N 29°37' W 095°00'1 1.5
2017-Sep-16 15:30N 29°37' W 095°01'0 0.0
2017-Sep-16 15:00N 29°37' W 095°01'0 0.1
2017-Sep-16 14:30N 29°37' W 095°01'1 1.6
2017-Sep-16 14:00N 29°37' W 095°00'0 0.0
2017-Sep-16 13:30N 29°37' W 095°00'0 0.0
2017-Sep-16 13:00N 29°37' W 095°00'0 0.0
2017-Sep-16 12:30N 29°37' W 095°00'0 0.0
2017-Sep-16 11:57N 29°37' W 095°00'0 0.0
2017-Sep-16 11:30N 29°37' W 095°00'0 0.1
2017-Sep-16 11:00N 29°37' W 095°00'1 1.9
2017-Sep-16 10:30N 29°37' W 095°01'1 1.7
2017-Sep-16 10:00N 29°37' W 095°00'3 5.4
2017-Sep-16 09:30N 29°36' W 094°57'0 0.5
2017-Sep-16 09:00N 29°37' W 094°57'5 9.5
2017-Sep-16 08:30N 29°41' W 094°59'0 0.0
2017-Sep-16 08:00N 29°41' W 094°59'1 1.0
2017-Sep-16 07:31N 29°41' W 094°59'1 1.3
2017-Sep-16 07:00N 29°41' W 094°60'0 0.2
2017-Sep-16 06:30N 29°41' W 094°59'0 0.0
2017-Sep-16 05:49N 29°41' W 094°59'0 0.0
2017-Sep-16 05:22N 29°41' W 094°59'0 0.0
2017-Sep-16 04:49N 29°41' W 094°59'0 0.0
2017-Sep-16 04:28N 29°41' W 094°59'0 0.0
2017-Sep-16 00:19N 29°41' W 094°59'0 0.0
2017-Sep-15 23:49N 29°41' W 094°59'0 0.0
2017-Sep-15 23:28N 29°41' W 094°59'1 2.1
2017-Sep-15 23:00N 29°42' W 094°60'5 9.1
2017-Sep-15 22:29N 29°45' W 095°04'6 1.4
2017-Sep-15 18:21N 29°45' W 095°11'4 6.4
2017-Sep-15 17:40N 29°45' W 095°06'1 7.6
2017-Sep-15 17:30N 29°45' W 095°04'4 8.2
2017-Sep-15 17:00N 29°42' W 095°01'0 0.1
2017-Sep-15 14:48N 29°42' W 095°01'0 0.0
2017-Sep-15 14:15N 29°42' W 095°01'0 0.0
2017-Sep-15 13:45N 29°42' W 095°01'1 0.6
2017-Sep-15 12:28N 29°43' W 095°01'1 1.6
2017-Sep-15 11:57N 29°42' W 095°01'0 0.1
2017-Sep-15 11:31N 29°42' W 095°01'2 3.5
2017-Sep-15 11:01N 29°41' W 094°60'0 0.4
2017-Sep-15 10:30N 29°41' W 094°59'1 1.8
2017-Sep-15 10:00N 29°40' W 094°59'1 1.3
2017-Sep-15 09:30N 29°41' W 094°59'0 0.0
2017-Sep-15 09:00N 29°41' W 094°59'0 0.0
2017-Sep-15 08:30N 29°41' W 094°59'0 0.0
2017-Sep-15 08:00N 29°41' W 094°59'1 1.2
2017-Sep-15 07:30N 29°41' W 094°60'0 0.9
2017-Sep-15 06:58N 29°41' W 095°00'1 1.3
2017-Sep-15 06:30N 29°41' W 094°60'0 0.0
2017-Sep-15 06:00N 29°41' W 094°60'0 0.0
2017-Sep-15 05:30N 29°41' W 094°60'0 0.2
2017-Sep-15 05:00N 29°41' W 094°60'0 0.8
2017-Sep-15 04:30N 29°41' W 094°59'0 0.0
2017-Sep-15 04:00N 29°41' W 094°59'0 0.0
2017-Sep-15 03:30N 29°41' W 094°59'0 0.0
2017-Sep-15 03:00N 29°41' W 094°59'0 0.0
2017-Sep-15 02:30N 29°41' W 094°59'0 0.0
2017-Sep-15 02:00N 29°41' W 094°59'2 3.9
2017-Sep-15 01:30N 29°42' W 095°01'2 2.0
2017-Sep-15 00:43N 29°44' W 095°01'0 0.0
2017-Sep-15 00:28N 29°44' W 095°01'0 0.3
2017-Sep-14 23:55N 29°44' W 095°01'2 3.7
2017-Sep-14 23:30N 29°42' W 095°01'0 0.5
2017-Sep-14 22:47N 29°42' W 095°01'0 0.0
2017-Sep-14 22:29N 29°42' W 095°01'0 0.0
2017-Sep-14 21:56N 29°42' W 095°01'0 0.0
2017-Sep-14 20:50N 29°42' W 095°01'1 1.1
2017-Sep-14 19:31N 29°44' W 095°01'  

Dump ship's entire track history